• Join FlightAware (Why Join?)
  • Login
  • US Flag 
09:04AM EDT


 

Airport Tracker/Info


-or-


 

Live Flight TrackerFlight Track Log ✈ AWE3418 ✈ 12-Apr-2013 ✈ KPHL - KMHT

Flight Track Log - Related Links

Times and Time Zones

All times are in EDT time to prevent confusion due to time zone crossing. See the AWE3418 flight status page for this flight to view local times or setup timezone preferences in your user account.

Time Position Orientation Groundspeed Altitude Reporting Facility
EDT Latitude Longitude Course Direction KTS MPH feet Rate Location/Type
07:27PM 39.8750 -75.2242 37° Northeast 133 153 700  Level FAA TRACON SMA TRACON (SMA)
07:27PM 39.8747 -75.2089 91° East 146 168 1,500 1,500 Climbing FAA TRACON SMA TRACON (SMA)
07:27PM 39.8714 -75.1864 101° East 174 200 1,700 1,200 Climbing FAA TRACON SMA TRACON (SMA)
07:28PM 39.8683 -75.1567 98° East 217 250 2,300 1,620 Climbing FAA TRACON SMA TRACON (SMA)
07:28PM 39.8661 -75.1308 96° East 238 274 2,800 1,320 Climbing FAA TRACON SMA TRACON (SMA)
07:28PM 39.8631 -75.1011 98° East 252 290 3,200 2,220 Climbing FAA TRACON SMA TRACON (SMA)
07:29PM 39.8167 -74.9168 90° East  Level FlightAware Approximate
07:29PM 39.8567 -75.0644 103° East 267 307 4,300  Level FAA TRACON SMA TRACON (SMA)
07:29PM 39.8508 -75.0347 104° East 281 323 5,100 2,700 Climbing FAA TRACON SMA TRACON (SMA)
07:29PM 39.8456 -75.0019 102° East 287 330 6,100 3,000 Climbing FAA TRACON SMA TRACON (SMA)
07:30PM 39.8049 -74.8079 105° East  Level FlightAware Approximate
07:30PM 39.8400 -74.9714 103° East 285 328 7,100  Level FAA TRACON SMA TRACON (SMA)
07:30PM 39.8325 -74.9317 104° East 290 334 7,800 2,220 Climbing FAA TRACON SMA TRACON (SMA)
07:30PM 39.8250 -74.8897 103° East 306 352 8,700 2,340 Climbing FAA TRACON SMA TRACON (SMA)
07:31PM 39.7835 -74.7006 105° East  Level FlightAware Approximate
07:31PM 39.8189 -74.8547 103° East 316 364 9,500  Level FAA TRACON SMA TRACON (SMA)
07:31PM 39.8125 -74.8206 104° East 320 368 10,100 2,100 Climbing FAA TRACON SMA TRACON (SMA)
07:31PM 39.8056 -74.7842 104° East 327 376 10,800 1,800 Climbing FAA TRACON SMA TRACON (SMA)
07:32PM 39.8506 -74.6329 37° Northeast  Level FlightAware Approximate
07:32PM 39.8019 -74.7453 97° East 353 406 11,300  Level FAA TRACON SMA TRACON (SMA)
07:32PM 39.8169 -74.6986 67° East 370 426 12,000 2,400 Climbing FAA TRACON SMA TRACON (SMA)
07:32PM 39.8389 -74.6692 46° Northeast 359 413 12,900 2,400 Climbing FAA TRACON SMA TRACON (SMA)
07:33PM 39.8650 -74.6481 32° Northeast 374 430 13,600 2,400 Climbing FAA TRACON SMA TRACON (SMA)
07:33PM 39.8972 -74.6142 39° Northeast 375 432 14,500 1,920 Climbing FAA TRACON SMA TRACON (SMA)
07:33PM 39.9222 -74.5897 37° Northeast 377 434 14,900 720 Climbing FAA TRACON SMA TRACON (SMA)
07:34PM 39.9497 -74.5622 37° Northeast 386 444 15,000 120 Climbing FAA TRACON SMA TRACON (SMA)
07:34PM 39.9856 -74.5269 37° Northeast 406 467 15,000 600 Level FAA TRACON SMA TRACON (SMA)
07:34PM 40.0128 -74.5011 36° Northeast 420 483 15,400 1,200 Climbing FAA TRACON SMA TRACON (SMA)
07:35PM 40.0431 -74.4708 37° Northeast 420 483 15,800 1,500 Climbing FAA TRACON SMA TRACON (SMA)
07:35PM 40.0794 -74.4347 37° Northeast 424 488 16,400 1,620 Climbing FAA TRACON SMA TRACON (SMA)
07:35PM 40.1089 -74.4056 37° Northeast 428 493 16,900 2,220 Climbing FAA TRACON SMA TRACON (SMA)
07:36PM 40.1450 -74.3694 37° Northeast 431 496 17,900 2,100 Climbing FAA TRACON SMA TRACON (SMA)
07:36PM 40.1528 -74.3617 37° Northeast 429 494 18,300 600 Climbing FAA TRACON SMA TRACON (SMA)
07:36PM 40.1528 -74.3617 131° Southeast 429 494 18,300 1,440 Level FAA TRACON SMA TRACON (SMA)
07:37PM 40.2708 -74.2447 37° Northeast 429 494 19,800 1,740 Climbing New York Center
07:38PM 40.3697 -74.1436 38° Northeast 434 499 21,300 1,320 Climbing New York Center
07:39PM 40.4800 -74.0697 27° Northeast 434 499 22,500 1,140 Climbing New York Center
07:40PM 40.6550 -74.0431 North 433 498 24,200 1,080 Climbing Boston Center
07:41PM 40.7969 -74.0358 North 448 516 25,300 1,080 Climbing Boston Center
07:42PM 40.9264 -74.0225 North 455 524 26,400 780 Climbing Boston Center
07:44PM 41.0600 -74.0064 North 466 536 27,000 300 Climbing Boston Center
07:44PM 41.1894 -73.9903 North 466 536 27,000  Level Boston Center
07:46PM 41.3189 -73.9714 North 466 536 27,000  Level Boston Center
07:47PM 41.4503 -73.9578 North 466 536 27,000  Level Boston Center
07:48PM 41.5839 -73.9417 North 466 536 27,000  Level Boston Center
07:49PM 41.7153 -73.9253 North 473 544 27,000  Level Boston Center
07:49PM 41.8447 -73.9142 North 465 535 27,000  Level Boston Center
07:51PM 41.9783 -73.8978 North 465 535 27,000 -60 Level Boston Center
07:51PM 42.1081 -73.8589 13° North 465 535 26,900 -780 Descending Boston Center
07:52PM 42.2014 -73.7236 47° Northeast 455 524 25,500 -1,500 Descending Boston Center
07:54PM 42.2719 -73.5567 60° Northeast 473 544 23,900 -1,620 Descending Boston Center
07:55PM 42.3358 -73.4061 60° Northeast 473 544 21,900 -2,220 Descending Boston Center
07:56PM 42.4103 -73.2189 62° Northeast 473 544 19,100 -1,500 Descending Boston Center
07:57PM 42.4653 -73.0931 59° Northeast 434 499 19,000 -60 Descending Boston Center
07:58PM 42.5328 -72.9303 61° Northeast 441 507 19,000  Level Boston Center
07:59PM 42.5894 -72.7953 60° Northeast 448 516 19,000 -360 Level Boston Center
08:00PM 42.6483 -72.6517 61° Northeast 443 510 18,400 -1,680 Descending Boston Center
08:01PM 42.7067 -72.5078 61° Northeast 437 503 15,700 -2,400 Descending Boston Center
08:02PM 42.7631 -72.3694 61° Northeast 430 495 13,600 -2,340 Descending Boston Center
08:03PM 42.8003 -72.2222 71° East 399 459 11,000 -1,740 Descending Boston Center
08:04PM 42.8106 -72.0892 84° East 362 417 10,200 -1,260 Descending Boston Center
08:05PM 42.8164 -71.9703 86° East 331 381 8,600 -1,500 Descending Boston Center
08:06PM 42.8158 -71.8569 90° East 298 343 7,200 -1,380 Descending Boston Center
08:07PM 42.8069 -71.7667 98° East 278 320 5,900 -1,380 Descending Boston Center
08:08PM 42.8042 -71.6675 92° East 245 282 4,600 -1,020 Descending Boston Center
08:09PM 42.8142 -71.6081 77° East 200 230 3,900 -960 Descending Boston Center
08:10PM 42.8408 -71.5594 53° Northeast 141 162 2,700 -1,200 Descending Boston Center